createdAt,value
2023-03-01T00:00:41.190Z,68.73
2023-03-01T00:01:41.181Z,68.62
2023-03-01T00:02:41.298Z,68.42
2023-03-01T00:03:41.211Z,68.20
2023-03-01T00:04:41.153Z,68.10
2023-03-01T00:05:41.137Z,68.10
2023-03-01T00:06:41.121Z,67.99
2023-03-01T00:07:41.121Z,67.89
2023-03-01T00:08:41.115Z,67.99
2023-03-01T00:09:41.114Z,67.79
2023-03-01T00:10:41.103Z,67.79
2023-03-01T00:11:41.079Z,67.89
2023-03-01T00:12:41.067Z,67.99
2023-03-01T00:13:41.038Z,68.10
2023-03-01T00:14:41.026Z,68.20
2023-03-01T00:15:41.028Z,68.20
2023-03-01T00:16:41.050Z,68.31
2023-03-01T00:17:41.004Z,68.31
2023-03-01T00:18:40.999Z,68.31
2023-03-01T00:19:40.980Z,68.31
2023-03-01T00:20:40.977Z,68.42
2023-03-01T00:21:40.962Z,68.31
2023-03-01T00:22:40.944Z,68.31
2023-03-01T00:23:40.966Z,68.42
2023-03-01T00:24:40.913Z,68.62
2023-03-01T00:25:40.905Z,68.62
2023-03-01T00:26:40.921Z,68.62
2023-03-01T00:27:40.878Z,68.73
2023-03-01T00:28:40.882Z,68.86
2023-03-01T00:29:40.864Z,68.86
2023-03-01T00:30:40.890Z,68.96
2023-03-01T00:31:40.851Z,69.07
2023-03-01T00:32:40.825Z,69.07
2023-03-01T00:33:40.828Z,69.17
2023-03-01T00:34:40.810Z,69.28
2023-03-01T00:35:40.826Z,69.38
2023-03-01T00:36:40.809Z,69.48
2023-03-01T00:37:40.777Z,69.59
2023-03-01T00:38:40.765Z,69.70
2023-03-01T00:39:40.761Z,69.70
2023-03-01T00:40:40.747Z,69.70
2023-03-01T00:41:40.726Z,69.59
2023-03-01T00:42:40.744Z,69.59
2023-03-01T00:43:40.704Z,69.59
2023-03-01T00:44:40.706Z,69.48
2023-03-01T00:45:40.686Z,69.48
2023-03-01T00:46:40.781Z,69.48
2023-03-01T00:47:40.666Z,69.59
2023-03-01T00:48:40.658Z,69.59
2023-03-01T00:49:40.644Z,69.66
2023-03-01T00:50:40.624Z,69.66
2023-03-01T00:51:40.619Z,69.70
2023-03-01T00:52:40.601Z,69.70
2023-03-01T00:53:40.596Z,69.70
2023-03-01T00:54:40.579Z,69.80
2023-03-01T00:55:40.575Z,69.90
2023-03-01T00:56:40.574Z,70.01
2023-03-01T00:57:40.545Z,70.11
2023-03-01T00:58:40.577Z,70.11
2023-03-01T00:59:40.529Z,70.11
2023-03-01T01:00:40.517Z,70.11
2023-03-01T01:01:40.610Z,70.01
2023-03-01T01:02:40.519Z,70.01
2023-03-01T01:03:40.482Z,70.01
2023-03-01T01:04:40.475Z,70.11
2023-03-01T01:05:40.453Z,70.22
2023-03-01T01:06:40.450Z,70.32
2023-03-01T01:07:40.432Z,70.53
2023-03-01T01:08:40.427Z,70.63
2023-03-01T01:09:40.407Z,70.63
2023-03-01T01:10:40.404Z,70.73
2023-03-01T01:11:40.384Z,70.84
2023-03-01T01:12:40.371Z,70.73
2023-03-01T01:13:40.371Z,70.84
2023-03-01T01:14:40.381Z,70.84
2023-03-01T01:15:40.373Z,70.84
2023-03-01T01:16:40.332Z,70.94
2023-03-01T01:17:40.318Z,71.05
2023-03-01T01:18:40.334Z,71.05
2023-03-01T01:19:40.298Z,71.05
2023-03-01T01:20:40.281Z,71.16
2023-03-01T01:21:40.288Z,71.16
2023-03-01T01:22:40.268Z,71.08
2023-03-01T01:23:40.246Z,71.08
2023-03-01T01:24:40.234Z,71.19
2023-03-01T01:25:40.235Z,71.19
2023-03-01T01:26:40.225Z,71.19
2023-03-01T01:27:40.200Z,71.39
2023-03-01T01:28:40.187Z,71.50
2023-03-01T01:29:40.175Z,71.60
2023-03-01T01:30:40.196Z,71.60
2023-03-01T01:31:40.159Z,71.60
2023-03-01T01:32:40.154Z,71.71
2023-03-01T01:33:40.144Z,71.74
2023-03-01T01:34:40.130Z,71.85
2023-03-01T01:35:40.185Z,71.95
2023-03-01T01:36:40.119Z,71.95
2023-03-01T01:37:40.119Z,71.95
2023-03-01T01:38:40.077Z,71.95
2023-03-01T01:39:40.162Z,71.95
2023-03-01T01:40:40.048Z,71.85
2023-03-01T01:41:40.049Z,71.85
2023-03-01T01:42:40.054Z,71.85
2023-03-01T01:43:40.019Z,71.95
2023-03-01T01:44:40.004Z,71.95
2023-03-01T01:45:40.006Z,71.95
2023-03-01T01:46:40.110Z,72.05
2023-03-01T01:47:39.981Z,72.16
2023-03-01T01:48:39.961Z,72.26
2023-03-01T01:49:39.944Z,72.47
2023-03-01T01:50:39.937Z,72.68
2023-03-01T01:51:39.933Z,72.68
2023-03-01T01:52:39.917Z,72.68
2023-03-01T01:53:39.902Z,72.68
2023-03-01T01:54:39.899Z,72.78
2023-03-01T01:55:39.886Z,72.78
2023-03-01T01:56:39.873Z,72.89
2023-03-01T01:57:39.863Z,72.89
2023-03-01T01:58:39.850Z,72.89
2023-03-01T01:59:39.834Z,72.89
2023-03-01T02:00:39.826Z,73.02
2023-03-01T02:01:39.810Z,73.02
2023-03-01T02:02:39.989Z,73.13
2023-03-01T02:03:39.984Z,73.13
2023-03-01T02:04:39.773Z,73.13
2023-03-01T02:05:39.768Z,73.13
2023-03-01T02:06:39.762Z,73.23
2023-03-01T02:07:39.742Z,73.13
2023-03-01T02:08:39.741Z,73.13
2023-03-01T02:09:39.731Z,73.23
2023-03-01T02:10:39.703Z,73.23
2023-03-01T02:11:39.705Z,73.13
2023-03-01T02:12:39.689Z,73.23
2023-03-01T02:13:39.679Z,73.13
2023-03-01T02:14:39.661Z,73.13
2023-03-01T02:15:39.655Z,73.23
2023-03-01T02:16:39.719Z,73.23
2023-03-01T02:17:39.639Z,73.20
2023-03-01T02:18:39.638Z,73.23
2023-03-01T02:19:39.609Z,73.23
2023-03-01T02:20:39.597Z,73.23
2023-03-01T02:21:39.604Z,73.23
2023-03-01T02:22:39.591Z,73.23
2023-03-01T02:23:39.562Z,73.13
2023-03-01T02:24:39.551Z,72.92
2023-03-01T02:25:39.540Z,72.78
2023-03-01T02:26:39.531Z,72.78
2023-03-01T02:27:39.549Z,72.68
2023-03-01T02:28:39.497Z,72.68
2023-03-01T02:29:39.493Z,72.68
2023-03-01T02:30:39.491Z,72.78
2023-03-01T02:31:39.528Z,72.68
2023-03-01T02:32:39.458Z,72.68
2023-03-01T02:33:39.444Z,72.78
2023-03-01T02:34:39.464Z,72.78
2023-03-01T02:35:39.481Z,72.89
2023-03-01T02:36:39.407Z,73.02
2023-03-01T02:37:39.402Z,73.13
2023-03-01T02:38:39.394Z,73.33
2023-03-01T02:39:39.402Z,73.44
2023-03-01T02:40:39.369Z,73.55
2023-03-01T02:41:39.358Z,73.65
2023-03-01T02:42:39.345Z,73.65
2023-03-01T02:43:39.341Z,73.65
2023-03-01T02:44:39.328Z,73.65
2023-03-01T02:45:39.305Z,73.65
2023-03-01T02:46:39.377Z,73.65
2023-03-01T02:47:39.295Z,73.65
2023-03-01T02:48:39.282Z,73.65
2023-03-01T02:49:39.263Z,73.55
2023-03-01T02:50:39.381Z,73.44
2023-03-01T02:51:39.243Z,73.44
2023-03-01T02:52:41.129Z,73.44
2023-03-01T02:53:39.253Z,73.33
2023-03-01T02:54:39.216Z,73.33
2023-03-01T02:55:39.193Z,73.23
2023-03-01T02:56:39.189Z,73.23
2023-03-01T02:57:39.176Z,73.23
2023-03-01T02:58:39.160Z,73.13
2023-03-01T02:59:39.156Z,73.02
2023-03-01T03:00:39.149Z,73.02
2023-03-01T03:01:39.131Z,73.02
2023-03-01T03:02:39.212Z,72.95
2023-03-01T03:03:39.126Z,73.06
2023-03-01T03:04:39.104Z,73.16
2023-03-01T03:05:39.081Z,73.27
2023-03-01T03:06:39.101Z,73.27
2023-03-01T03:07:39.069Z,73.37
2023-03-01T03:08:39.099Z,73.37
2023-03-01T03:09:39.037Z,73.27
2023-03-01T03:10:39.031Z,73.27
2023-03-01T03:11:39.015Z,73.16
2023-03-01T03:12:39.015Z,73.13
2023-03-01T03:13:38.991Z,73.13
2023-03-01T03:14:38.995Z,73.13
2023-03-01T03:15:38.970Z,73.13
2023-03-01T03:16:38.991Z,73.13
2023-03-01T03:17:38.947Z,73.13
2023-03-01T03:18:38.941Z,73.02
2023-03-01T03:19:38.932Z,73.02
2023-03-01T03:20:38.918Z,73.02
2023-03-01T03:21:38.907Z,73.02
2023-03-01T03:22:38.917Z,73.13
2023-03-01T03:23:38.884Z,73.02
2023-03-01T03:24:38.882Z,73.13
2023-03-01T03:25:39.070Z,73.23
2023-03-01T03:26:38.845Z,73.23
2023-03-01T03:27:38.839Z,73.23
2023-03-01T03:28:38.834Z,73.23
2023-03-01T03:29:38.811Z,73.23
2023-03-01T03:30:38.812Z,73.23
2023-03-01T03:31:38.877Z,73.23
2023-03-01T03:32:38.776Z,73.13
2023-03-01T03:33:38.772Z,73.02
2023-03-01T03:34:38.762Z,72.92
2023-03-01T03:35:38.782Z,73.02
2023-03-01T03:36:38.738Z,73.02
2023-03-01T03:37:38.727Z,73.06
2023-03-01T03:38:38.741Z,73.06
2023-03-01T03:39:38.711Z,73.06
2023-03-01T03:40:38.701Z,73.16
2023-03-01T03:41:38.687Z,73.27
2023-03-01T03:42:38.671Z,73.27
2023-03-01T03:43:38.653Z,73.37
2023-03-01T03:44:38.653Z,73.37
2023-03-01T03:45:38.657Z,73.48
2023-03-01T03:46:38.619Z,73.48
2023-03-01T03:47:38.609Z,73.48
2023-03-01T03:48:38.597Z,73.48
2023-03-01T03:49:38.589Z,73.48
2023-03-01T03:50:38.586Z,73.48
2023-03-01T03:51:38.574Z,73.48
2023-03-01T03:52:38.561Z,73.58
2023-03-01T03:53:38.555Z,73.58
2023-03-01T03:54:38.555Z,73.58
2023-03-01T03:55:38.527Z,73.48
2023-03-01T03:56:40.024Z,73.48
2023-03-01T03:57:38.507Z,73.37
2023-03-01T03:58:38.494Z,73.37
2023-03-01T03:59:38.476Z,73.37
2023-03-01T04:00:38.479Z,73.37
2023-03-01T04:01:38.483Z,73.27
2023-03-01T04:02:38.480Z,73.23
2023-03-01T04:03:38.435Z,73.23
2023-03-01T04:04:38.429Z,73.33
2023-03-01T04:05:38.415Z,73.23
2023-03-01T04:06:38.408Z,73.23
2023-03-01T04:07:38.392Z,73.33
2023-03-01T04:08:38.392Z,73.33
2023-03-01T04:09:38.369Z,73.27
2023-03-01T04:10:38.419Z,73.27
2023-03-01T04:11:38.353Z,73.27
2023-03-01T04:12:38.338Z,73.37
2023-03-01T04:13:38.320Z,73.48
2023-03-01T04:14:38.312Z,73.58
2023-03-01T04:15:38.320Z,73.58
2023-03-01T04:16:38.344Z,73.68
2023-03-01T04:17:38.285Z,73.79
2023-03-01T04:18:38.264Z,73.79
2023-03-01T04:19:38.269Z,73.79
2023-03-01T04:20:38.258Z,73.76
2023-03-01T04:21:38.237Z,73.76
2023-03-01T04:22:38.221Z,73.76
2023-03-01T04:23:38.216Z,73.76
2023-03-01T04:24:38.205Z,73.76
2023-03-01T04:25:38.188Z,73.76
2023-03-01T04:26:38.211Z,73.76
2023-03-01T04:27:38.174Z,73.76
2023-03-01T04:28:38.165Z,73.65
2023-03-01T04:29:38.144Z,73.55
2023-03-01T04:30:38.132Z,73.58
2023-03-01T04:31:38.214Z,73.48
2023-03-01T04:32:38.197Z,73.58
2023-03-01T04:33:38.106Z,73.58
2023-03-01T04:34:38.098Z,73.68
2023-03-01T04:35:38.212Z,73.68
2023-03-01T04:36:38.165Z,73.79
2023-03-01T04:37:38.059Z,73.89
2023-03-01T04:38:38.053Z,73.89
2023-03-01T04:39:38.032Z,74.00
2023-03-01T04:40:38.022Z,74.00
2023-03-01T04:41:38.019Z,73.96
2023-03-01T04:42:38.032Z,74.00
2023-03-01T04:43:37.987Z,73.96
2023-03-01T04:44:37.982Z,73.89
2023-03-01T04:45:38.018Z,74.00
2023-03-01T04:46:37.954Z,74.00
2023-03-01T04:47:37.948Z,74.10
2023-03-01T04:48:37.947Z,74.21
2023-03-01T04:49:37.926Z,74.21
2023-03-01T04:50:37.921Z,74.21
2023-03-01T04:51:37.905Z,74.31
2023-03-01T04:52:37.894Z,74.31
2023-03-01T04:53:37.984Z,74.42
2023-03-01T04:54:37.864Z,74.42
2023-03-01T04:55:37.857Z,74.42
2023-03-01T04:56:37.851Z,74.42
2023-03-01T04:57:37.831Z,74.31
2023-03-01T04:58:37.867Z,74.31
2023-03-01T04:59:37.817Z,74.27
2023-03-01T05:00:37.798Z,74.27
2023-03-01T05:01:37.795Z,74.17
2023-03-01T05:02:37.809Z,74.17
2023-03-01T05:03:37.772Z,74.27
2023-03-01T05:04:37.814Z,74.38
2023-03-01T05:05:37.756Z,74.48
2023-03-01T05:06:37.749Z,74.59
2023-03-01T05:07:37.731Z,74.59
2023-03-01T05:08:37.717Z,74.59
2023-03-01T05:09:37.706Z,74.59
2023-03-01T05:10:37.700Z,74.52
2023-03-01T05:11:37.677Z,74.48
2023-03-01T05:12:37.671Z,74.48
2023-03-01T05:13:37.660Z,74.48
2023-03-01T05:14:37.668Z,74.48
2023-03-01T05:15:37.720Z,74.48
2023-03-01T05:16:37.886Z,74.59
2023-03-01T05:17:37.625Z,74.59
2023-03-01T05:18:37.608Z,74.59
2023-03-01T05:19:37.593Z,74.59
2023-03-01T05:20:37.612Z,74.59
2023-03-01T05:21:37.577Z,74.59
2023-03-01T05:22:37.571Z,74.70
2023-03-01T05:23:37.570Z,74.70
2023-03-01T05:24:37.555Z,74.80
2023-03-01T05:25:37.530Z,74.80
2023-03-01T05:26:37.534Z,74.80
2023-03-01T05:27:37.507Z,74.80
2023-03-01T05:28:37.496Z,74.80
2023-03-01T05:29:37.483Z,74.80
2023-03-01T05:30:39.492Z,74.73
2023-03-01T05:31:37.459Z,74.83
2023-03-01T05:32:37.452Z,74.83
2023-03-01T05:33:38.822Z,75.15
2023-03-01T05:34:37.442Z,75.36
2023-03-01T05:35:37.445Z,75.60
2023-03-01T05:36:37.402Z,76.01
2023-03-01T05:37:37.420Z,76.54
2023-03-01T05:38:37.421Z,76.85
2023-03-01T05:39:37.369Z,77.16
2023-03-01T05:40:37.365Z,77.27
2023-03-01T05:41:37.357Z,77.38
2023-03-01T05:42:37.331Z,77.48
2023-03-01T05:43:37.355Z,77.48
2023-03-01T05:44:37.341Z,77.48
2023-03-01T05:45:37.372Z,77.44
2023-03-01T05:46:37.343Z,77.34
2023-03-01T05:47:37.276Z,77.34
2023-03-01T05:48:37.270Z,77.23
2023-03-01T05:49:39.640Z,77.23
2023-03-01T05:50:37.263Z,77.23
2023-03-01T05:51:37.250Z,77.13
2023-03-01T05:52:37.221Z,77.13
2023-03-01T05:53:37.215Z,77.13
2023-03-01T05:54:37.206Z,77.13
2023-03-01T05:55:37.186Z,77.02
2023-03-01T05:56:37.187Z,77.13
2023-03-01T05:57:37.176Z,77.23
2023-03-01T05:58:37.162Z,77.34
2023-03-01T05:59:37.162Z,77.34
2023-03-01T06:00:37.138Z,77.34
2023-03-01T06:01:39.122Z,77.34
2023-03-01T06:02:37.140Z,77.44
2023-03-01T06:03:37.099Z,77.34
2023-03-01T06:04:37.167Z,77.34
2023-03-01T06:05:37.117Z,77.34
2023-03-01T06:06:37.078Z,77.34
2023-03-01T06:07:37.055Z,77.44
2023-03-01T06:08:37.053Z,77.44
2023-03-01T06:09:37.039Z,77.44
2023-03-01T06:10:37.035Z,77.44
2023-03-01T06:11:37.016Z,77.51
2023-03-01T06:12:36.997Z,77.51
2023-03-01T06:13:37.004Z,77.51
2023-03-01T06:14:36.982Z,77.51
2023-03-01T06:15:37.035Z,77.51
2023-03-01T06:16:36.960Z,77.61
2023-03-01T06:17:36.946Z,77.58
2023-03-01T06:18:36.962Z,77.47
2023-03-01T06:19:36.929Z,77.37
2023-03-01T06:20:36.922Z,77.27
2023-03-01T06:21:36.899Z,77.27
2023-03-01T06:22:36.900Z,77.37
2023-03-01T06:23:36.877Z,77.37
2023-03-01T06:24:36.911Z,77.47
2023-03-01T06:25:37.057Z,77.58
2023-03-01T06:26:36.845Z,77.58
2023-03-01T06:27:36.849Z,77.69
2023-03-01T06:28:36.825Z,77.69
2023-03-01T06:29:36.817Z,77.69
2023-03-01T06:30:36.803Z,77.65
2023-03-01T06:31:36.839Z,77.65
2023-03-01T06:32:36.785Z,77.65
2023-03-01T06:33:36.779Z,77.23
2023-03-01T06:34:36.782Z,77.47
2023-03-01T06:35:36.792Z,77.65
2023-03-01T06:36:36.736Z,77.86
2023-03-01T06:37:36.736Z,77.86
2023-03-01T06:38:36.706Z,77.86
2023-03-01T06:39:36.695Z,77.72
2023-03-01T06:40:36.699Z,77.30
2023-03-01T06:41:36.696Z,76.67
2023-03-01T06:42:36.663Z,76.47
2023-03-01T06:43:36.677Z,76.15
2023-03-01T06:44:36.642Z,75.81
2023-03-01T06:45:36.640Z,75.60
2023-03-01T06:46:36.659Z,75.70
2023-03-01T06:47:36.624Z,75.81
2023-03-01T06:48:36.606Z,75.70
2023-03-01T06:49:36.594Z,75.46
2023-03-01T06:50:36.747Z,75.36
2023-03-01T06:51:36.562Z,75.15
2023-03-01T06:52:36.556Z,75.04
2023-03-01T06:53:36.569Z,74.73
2023-03-01T06:54:36.529Z,74.63
2023-03-01T06:55:36.525Z,74.49
2023-03-01T06:56:36.500Z,74.38
2023-03-01T06:57:36.492Z,74.28
2023-03-01T06:58:36.477Z,74.18
2023-03-01T06:59:36.503Z,74.07
2023-03-01T07:00:36.455Z,73.87
2023-03-01T07:01:36.500Z,73.66
2023-03-01T07:02:36.502Z,73.52
2023-03-01T07:03:36.424Z,73.41
2023-03-01T07:04:36.406Z,73.31
2023-03-01T07:05:36.397Z,73.21
2023-03-01T07:06:36.427Z,73.07
2023-03-01T07:07:36.377Z,73.07
2023-03-01T07:08:36.361Z,72.83
2023-03-01T07:09:36.355Z,72.17
2023-03-01T07:10:36.346Z,71.72
2023-03-01T07:11:36.337Z,70.83
2023-03-01T07:12:36.315Z,69.89
2023-03-01T07:13:36.300Z,69.03
2023-03-01T07:14:36.300Z,68.51
2023-03-01T07:15:36.295Z,68.07
2023-03-01T07:16:36.565Z,67.73
2023-03-01T07:17:36.267Z,67.31
2023-03-01T07:18:36.245Z,66.66
2023-03-01T07:19:36.246Z,66.55
2023-03-01T07:20:36.230Z,66.35
2023-03-01T07:21:36.416Z,65.70
2023-03-01T07:22:36.283Z,65.18
2023-03-01T07:23:36.193Z,65.08
2023-03-01T07:24:36.177Z,65.28
2023-03-01T07:25:36.174Z,64.97
2023-03-01T07:26:36.158Z,64.84
2023-03-01T07:27:36.150Z,64.47
2023-03-01T07:28:36.134Z,63.59
2023-03-01T07:29:36.127Z,62.39
2023-03-01T07:30:36.128Z,61.30
2023-03-01T07:31:36.112Z,59.83
2023-03-01T07:32:36.311Z,59.08
2023-03-01T07:33:36.090Z,58.57
2023-03-01T07:34:36.119Z,58.44
2023-03-01T07:35:36.120Z,58.34
2023-03-01T07:36:36.074Z,57.72
2023-03-01T07:37:36.039Z,57.69
2023-03-01T07:38:36.050Z,57.25
2023-03-01T07:39:36.019Z,56.84
2023-03-01T07:40:36.101Z,56.38
2023-03-01T07:41:36.048Z,55.53
2023-03-01T07:42:35.988Z,55.02
2023-03-01T07:43:36.068Z,54.38
2023-03-01T07:44:35.965Z,53.84
2023-03-01T07:45:35.960Z,53.84
2023-03-01T07:46:35.932Z,53.84
2023-03-01T07:47:35.978Z,53.30
2023-03-01T07:48:35.911Z,53.07
2023-03-01T07:49:35.914Z,52.44
2023-03-01T07:50:35.908Z,51.77
2023-03-01T07:51:35.878Z,50.72
2023-03-01T07:52:35.888Z,49.37
2023-03-01T07:53:35.861Z,48.76
2023-03-01T07:54:35.872Z,48.00
2023-03-01T07:55:35.827Z,47.08
2023-03-01T07:56:35.825Z,46.52
2023-03-01T07:57:35.806Z,45.91
2023-03-01T07:58:35.802Z,45.48
2023-03-01T07:59:35.788Z,45.05
2023-03-01T08:00:35.784Z,44.12
2023-03-01T08:01:35.797Z,44.09
2023-03-01T08:02:35.755Z,44.30
2023-03-01T08:03:35.742Z,44.17
2023-03-01T08:04:35.732Z,44.26
2023-03-01T08:05:35.732Z,43.44
2023-03-01T08:06:35.700Z,43.12
2023-03-01T08:07:35.697Z,42.08
2023-03-01T08:08:35.676Z,41.88
2023-03-01T08:09:35.679Z,41.37
2023-03-01T08:10:35.676Z,41.79
2023-03-01T08:11:35.662Z,41.16
2023-03-01T08:12:35.633Z,40.44
2023-03-01T08:13:35.622Z,40.30
2023-03-01T08:14:35.609Z,40.48
2023-03-01T08:15:35.649Z,39.95
2023-03-01T08:16:35.662Z,39.53
2023-03-01T08:17:35.571Z,39.39
2023-03-01T08:18:35.770Z,38.46
2023-03-01T08:19:35.552Z,37.84
2023-03-01T08:20:35.544Z,37.13
2023-03-01T08:21:35.535Z,37.23
2023-03-01T08:22:35.514Z,37.53
2023-03-01T08:23:35.510Z,37.11
2023-03-01T08:24:35.495Z,36.59
2023-03-01T08:25:35.487Z,36.37
2023-03-01T08:26:35.516Z,36.25
2023-03-01T08:27:35.471Z,36.27
2023-03-01T08:28:35.452Z,36.27
2023-03-01T08:29:35.442Z,35.76
2023-03-01T08:30:35.425Z,35.74
2023-03-01T08:31:35.451Z,36.05
2023-03-01T08:32:35.401Z,36.23
2023-03-01T08:33:35.398Z,36.12
2023-03-01T08:34:35.385Z,34.80
2023-03-01T08:35:35.387Z,34.82
2023-03-01T08:36:35.357Z,35.74
2023-03-01T08:37:35.346Z,35.76
2023-03-01T08:38:35.340Z,35.47
2023-03-01T08:39:35.356Z,35.68
2023-03-01T08:40:35.329Z,36.49
2023-03-01T08:41:35.299Z,36.69
2023-03-01T08:42:35.328Z,36.08
2023-03-01T08:43:35.293Z,35.98
2023-03-01T08:44:35.266Z,36.30
2023-03-01T08:45:35.310Z,36.50
2023-03-01T08:46:35.398Z,36.81
2023-03-01T08:47:35.240Z,36.38
2023-03-01T08:48:35.429Z,35.58
2023-03-01T08:49:35.216Z,35.98
2023-03-01T08:50:35.224Z,36.18
2023-03-01T08:51:35.197Z,35.86
2023-03-01T08:52:35.182Z,35.54
2023-03-01T08:53:35.176Z,35.22
2023-03-01T08:54:35.192Z,35.22
2023-03-01T08:55:35.145Z,35.02
2023-03-01T08:56:35.143Z,35.14
2023-03-01T08:57:35.129Z,35.24
2023-03-01T08:58:35.142Z,35.63
2023-03-01T08:59:35.106Z,35.81
2023-03-01T09:00:35.095Z,35.09
2023-03-01T09:01:35.087Z,34.36
2023-03-01T09:02:35.144Z,34.25
2023-03-01T09:03:35.069Z,34.55
2023-03-01T09:04:35.043Z,34.57
2023-03-01T09:05:35.037Z,34.57
2023-03-01T09:06:35.020Z,34.92
2023-03-01T09:07:35.019Z,35.88
2023-03-01T09:08:35.003Z,36.32
2023-03-01T09:09:34.990Z,36.74
2023-03-01T09:10:34.972Z,37.03
2023-03-01T09:11:34.967Z,37.03
2023-03-01T09:12:34.959Z,36.94
2023-03-01T09:13:34.940Z,36.74
2023-03-01T09:14:35.214Z,37.04
2023-03-01T09:15:35.037Z,36.72
2023-03-01T09:16:34.999Z,36.12
2023-03-01T09:17:34.905Z,36.93
2023-03-01T09:18:34.900Z,36.50
2023-03-01T09:19:34.875Z,36.16
2023-03-01T09:20:34.873Z,35.56
2023-03-01T09:21:40.756Z,35.56
2023-03-01T09:22:34.850Z,35.46
2023-03-01T09:23:34.837Z,35.86
2023-03-01T09:24:34.830Z,35.36
2023-03-01T09:25:34.807Z,35.24
2023-03-01T09:26:34.804Z,34.82
2023-03-01T09:27:34.790Z,34.92
2023-03-01T09:28:34.783Z,34.60
2023-03-01T09:29:34.776Z,34.49
2023-03-01T09:30:34.856Z,33.98
2023-03-01T09:31:34.745Z,34.08
2023-03-01T09:32:34.802Z,33.66
2023-03-01T09:33:34.720Z,33.56
2023-03-01T09:34:34.718Z,33.95
2023-03-01T09:35:34.737Z,33.43
2023-03-01T09:36:34.855Z,33.03
2023-03-01T09:37:34.719Z,33.53
2023-03-01T09:38:34.672Z,33.33
2023-03-01T09:39:34.656Z,33.43
2023-03-01T09:40:34.637Z,33.43
2023-03-01T09:41:34.625Z,33.23
2023-03-01T09:42:34.613Z,33.14
2023-03-01T09:43:34.607Z,33.55
2023-03-01T09:44:34.599Z,33.12
2023-03-01T09:45:34.636Z,33.23
2023-03-01T09:46:34.954Z,33.12
2023-03-01T09:47:34.563Z,33.41
2023-03-01T09:48:34.546Z,33.11
2023-03-01T09:49:34.643Z,33.31
2023-03-01T09:50:34.530Z,32.83
2023-03-01T09:51:34.541Z,33.24
2023-03-01T09:52:34.513Z,33.55
2023-03-01T09:53:34.499Z,33.21
2023-03-01T09:54:34.488Z,32.39
2023-03-01T09:55:34.469Z,32.36
2023-03-01T09:56:34.469Z,31.96
2023-03-01T09:57:34.457Z,32.17
2023-03-01T09:58:34.436Z,32.69
2023-03-01T09:59:34.433Z,32.08
2023-03-01T10:00:34.420Z,31.76
2023-03-01T10:01:34.409Z,31.04
2023-03-01T10:02:34.549Z,30.82
2023-03-01T10:03:34.401Z,30.84
2023-03-01T10:04:37.197Z,30.25
2023-03-01T10:05:34.361Z,30.76
2023-03-01T10:06:35.621Z,30.98
2023-03-01T10:07:34.334Z,31.68
2023-03-01T10:08:34.331Z,32.08
2023-03-01T10:09:34.334Z,31.96
2023-03-01T10:10:34.321Z,31.64
2023-03-01T10:11:34.290Z,31.35
2023-03-01T10:12:34.285Z,31.57
2023-03-01T10:13:34.269Z,32.20
2023-03-01T10:14:34.296Z,32.42
2023-03-01T10:15:34.286Z,32.52
2023-03-01T10:16:34.239Z,32.83
2023-03-01T10:17:34.221Z,32.50
2023-03-01T10:18:34.248Z,32.50
2023-03-01T10:19:34.210Z,32.29
2023-03-01T10:20:34.191Z,32.08
2023-03-01T10:21:34.289Z,32.08
2023-03-01T10:22:34.183Z,31.80
2023-03-01T10:23:34.163Z,32.13
2023-03-01T10:24:34.157Z,33.06
2023-03-01T10:25:34.137Z,32.75
2023-03-01T10:26:34.193Z,32.47
2023-03-01T10:27:34.117Z,33.07
2023-03-01T10:28:34.198Z,32.87
2023-03-01T10:29:34.086Z,33.26
2023-03-01T10:30:34.086Z,33.16
2023-03-01T10:31:34.404Z,32.86
2023-03-01T10:32:34.149Z,33.27
2023-03-01T10:33:34.043Z,33.19
2023-03-01T10:34:34.172Z,33.47
2023-03-01T10:35:34.075Z,33.16
2023-03-01T10:36:34.008Z,33.16
2023-03-01T10:37:34.000Z,33.07
2023-03-01T10:38:33.994Z,32.86
2023-03-01T10:39:35.076Z,32.64
2023-03-01T10:40:33.973Z,32.54
2023-03-01T10:41:34.059Z,33.07
2023-03-01T10:42:33.954Z,33.06
2023-03-01T10:43:33.935Z,33.07
2023-03-01T10:44:33.915Z,33.38
2023-03-01T10:45:33.909Z,33.38
2023-03-01T10:46:33.956Z,33.27
2023-03-01T10:47:33.889Z,32.64
2023-03-01T10:48:33.869Z,31.40
2023-03-01T10:49:33.860Z,31.08
2023-03-01T10:50:33.872Z,30.58
2023-03-01T10:51:33.845Z,30.56
2023-03-01T10:52:33.843Z,30.91
2023-03-01T10:53:33.824Z,32.22
2023-03-01T10:54:33.825Z,33.92
2023-03-01T10:55:33.799Z,35.30
2023-03-01T10:56:33.789Z,36.25
2023-03-01T10:57:33.783Z,36.59
2023-03-01T10:58:33.764Z,36.90
2023-03-01T10:59:33.751Z,36.90
2023-03-01T11:00:33.736Z,36.79
2023-03-01T11:01:34.364Z,36.79
2023-03-01T11:02:33.894Z,37.18
2023-03-01T11:03:33.706Z,36.47
2023-03-01T11:04:33.757Z,36.88
2023-03-01T11:05:33.689Z,36.90
2023-03-01T11:06:33.717Z,36.90
2023-03-01T11:07:33.668Z,37.22
2023-03-01T11:08:35.030Z,37.81
2023-03-01T11:09:33.636Z,37.59
2023-03-01T11:10:33.632Z,36.56
2023-03-01T11:11:33.868Z,36.47
2023-03-01T11:12:33.614Z,36.37
2023-03-01T11:13:33.596Z,36.54
2023-03-01T11:14:33.593Z,35.98
2023-03-01T11:15:33.588Z,35.05
2023-03-01T11:16:33.626Z,34.68
2023-03-01T11:17:39.029Z,35.51
2023-03-01T11:18:46.926Z,35.41
2023-03-01T11:19:33.532Z,35.51
2023-03-01T11:20:33.514Z,34.98
2023-03-01T11:21:33.676Z,34.68
2023-03-01T11:22:33.584Z,35.51
2023-03-01T11:23:33.491Z,34.78
2023-03-01T11:24:33.466Z,34.88
2023-03-01T11:25:33.456Z,34.68
2023-03-01T11:26:33.578Z,34.78
2023-03-01T11:27:33.464Z,34.68
2023-03-01T11:28:33.425Z,34.47
2023-03-01T11:29:43.221Z,33.85
2023-03-01T11:30:33.404Z,33.83
2023-03-01T11:31:33.828Z,33.11
2023-03-01T11:32:33.505Z,32.18
2023-03-01T11:33:33.372Z,32.37
2023-03-01T11:34:33.366Z,31.45
2023-03-01T11:35:33.345Z,30.84
2023-03-01T11:36:33.343Z,30.95
2023-03-01T11:37:33.324Z,32.20
2023-03-01T11:38:33.340Z,32.17
2023-03-01T11:39:33.300Z,31.26
2023-03-01T11:40:33.325Z,31.46
2023-03-01T11:41:33.683Z,31.68
2023-03-01T11:42:33.304Z,31.66
2023-03-01T11:43:33.252Z,32.07
2023-03-01T11:44:33.237Z,31.65
2023-03-01T11:45:33.224Z,31.95
2023-03-01T11:46:33.352Z,31.92
2023-03-01T11:47:33.347Z,31.39
2023-03-01T11:48:48.466Z,30.67
2023-03-01T11:49:33.185Z,31.26
2023-03-01T11:50:33.167Z,30.65
2023-03-01T11:51:33.441Z,30.78
2023-03-01T11:52:33.151Z,31.34
2023-03-01T11:53:33.158Z,31.78
2023-03-01T11:54:33.165Z,31.88
2023-03-01T11:55:33.121Z,31.78
2023-03-01T11:56:33.103Z,32.10
2023-03-01T11:57:42.802Z,32.69
2023-03-01T11:58:33.090Z,31.85
2023-03-01T11:59:33.070Z,31.93
2023-03-01T12:00:33.075Z,31.70
2023-03-01T12:01:33.450Z,31.32
2023-03-01T12:02:33.104Z,29.18
2023-03-01T12:03:33.031Z,29.57
2023-03-01T12:04:33.125Z,28.93
2023-03-01T12:05:33.005Z,29.00
2023-03-01T12:06:32.985Z,28.07
2023-03-01T12:07:32.978Z,27.96
2023-03-01T12:08:32.979Z,28.25
2023-03-01T12:09:33.036Z,27.56
2023-03-01T12:10:32.967Z,27.25
2023-03-01T12:11:32.943Z,26.89
2023-03-01T12:12:32.926Z,28.87
2023-03-01T12:13:32.954Z,29.01
2023-03-01T12:14:32.907Z,29.53
2023-03-01T12:15:32.889Z,29.96
2023-03-01T12:16:38.739Z,30.55
2023-03-01T12:17:32.874Z,30.32
2023-03-01T12:18:32.868Z,28.97
2023-03-01T12:19:32.858Z,27.63
2023-03-01T12:20:32.831Z,27.43
2023-03-01T12:21:33.101Z,26.83
2023-03-01T12:22:32.825Z,27.13
2023-03-01T12:23:32.812Z,27.32
2023-03-01T12:24:32.792Z,27.32
2023-03-01T12:25:32.778Z,27.12
2023-03-01T12:26:32.850Z,27.62
2023-03-01T12:27:32.767Z,27.22
2023-03-01T12:28:32.750Z,27.61
2023-03-01T12:29:32.745Z,27.09
2023-03-01T12:30:32.729Z,27.18
2023-03-01T12:31:33.221Z,27.25
2023-03-01T12:32:34.645Z,27.16
2023-03-01T12:33:32.704Z,26.75
2023-03-01T12:34:32.701Z,26.86
2023-03-01T12:35:32.684Z,25.78
2023-03-01T12:36:33.159Z,26.88
2023-03-01T12:37:32.651Z,26.06
2023-03-01T12:38:32.643Z,25.86
2023-03-01T12:39:32.632Z,25.46
2023-03-01T12:40:32.647Z,25.18
2023-03-01T12:41:32.983Z,26.40
2023-03-01T12:42:32.614Z,26.92
2023-03-01T12:43:32.592Z,26.30
2023-03-01T12:44:32.575Z,26.08
2023-03-01T12:45:32.643Z,25.98
2023-03-01T12:46:33.015Z,26.39
2023-03-01T12:47:32.543Z,26.08
2023-03-01T12:48:32.539Z,25.68
2023-03-01T12:49:32.521Z,25.37
2023-03-01T12:50:32.504Z,24.98
2023-03-01T12:51:32.521Z,24.89
2023-03-01T12:52:32.493Z,25.10